Main page
METAR-TAF:

METAR-TAF

Airports :

Dibrugarh Airport

Dibrugarh, India

latitude: 27-29N, longitude: 095-01E, elevation: 110 m

Current weather observation

The report was made 36 minutes ago, at 08:00 UTC
Wind 6 kt from the North/Northwest
Temperature 36°C
Humidity 47%
Pressure 1001 hPa
Visibility: 6000 m
Few clouds at a height of 2500 ft

METAR: VEMN 240800Z 33006KT 6000 FEW025 36/23 Q1001 NOSIG

Time: 14:06 (08:36 UTC)

Forecast

The report was made 3 hours and 36 minutes ago, at 05:00 UTC
Forecast valid from 24 at 06 UTC to 24 at 15 UTC
Wind 3 kt from the Northwest
Visibility: 6000 m
Few clouds at a height of 2000 ft
Scattered clouds at a height of 10000 ft
Becoming
from 24 at 12 UTC to 24 at 14 UTC
Wind kt from the North
Visibility: 5000 m
Scattered clouds at a height of 10000 ft
haze,

TAF: VEMN 240500Z 2406/2415 32003KT 6000 FEW020 SCT100 BECMG 2412/2414 00000KT 5000 HZ SCT100

Weather observations and forecasts of more than 4000 airports (METAR and TAF reports).

The available stations are represented by yellow and red dots on the map.

Hover mouse over dot to see the name of the station.

Then click to see weather observations and forecasts.

To change the map : click on the green buttons with a black cross to zoom in, on the green button with a dash to zoom out, or on the green arrows for adjacent maps.


METAR-TAF: